Time;durP1;ratioP1;P1;durP2;ratioP2;P2;SDS_P1;SDS_P2;PMS_P1;PMS_P2;Temp;Humidity;BMP_temperature;BMP_pressure;BME280_temperature;BME280_humidity;BME280_pressure;Samples;Min_cycle;Max_cycle;Signal;HPM_P1;HPM_P2
2023/02/13 00:01:31;;;;;;;;;;;;;;;;;;5094970;28;20384;-79
2023/02/13 00:03:56;;;;;;;;;;;;;;;;;;5083926;28;19928;-79
2023/02/13 00:06:21;;;;;;;;;;;;;;;;;;5097325;28;19919;-79
2023/02/13 00:08:47;;;;;;;;;;;;;;;;;;5086578;28;19916;-79
2023/02/13 00:11:12;;;;;;;;;;;;;;;;;;5087563;28;20033;-78
2023/02/13 00:13:37;;;;;;;;;;;;;;;;;;5105707;28;20427;-79
2023/02/13 00:16:02;;;;;;;;;;;;;;;;;;5095026;28;19912;-79
2023/02/13 00:18:27;;;;;;;;;;;;;;;;;;5108333;28;19919;-79
2023/02/13 00:20:52;;;;;;;;;;;;;;;;;;5092550;28;19922;-79
2023/02/13 00:23:17;;;;;;;;;;;;;;;;;;5096976;28;19912;-79
2023/02/13 00:25:42;;;;;;;;;;;;;;;;;;5104046;28;20424;-79
2023/02/13 00:28:08;;;;;;;;;;;;;;;;;;5096162;28;19920;-79
2023/02/13 00:30:33;;;;;;;;;;;;;;;;;;5099011;28;19926;-79
2023/02/13 00:32:58;;;;;;;;;;;;;;;;;;5087823;28;19963;-79
2023/02/13 00:35:23;;;;;;;;;;;;;;;;;;5108490;28;19912;-78
2023/02/13 00:37:48;;;;;;;;;;;;;;;;;;5091843;28;19942;-79
2023/02/13 00:40:13;;;;;;;;;;;;;;;;;;5072025;28;19920;-79
2023/02/13 00:42:38;;;;;;;;;;;;;;;;;;5096379;28;20364;-79
2023/02/13 00:45:03;;;;;;;;;;;;;;;;;;5087624;28;19912;-79
2023/02/13 00:47:29;;;;;;;;;;;;;;;;;;5096212;28;19924;-79
2023/02/13 00:49:54;;;;;;;;;;;;;;;;;;5089686;28;19922;-79
2023/02/13 00:52:19;;;;;;;;;;;;;;;;;;5099809;28;19918;-80
2023/02/13 00:54:46;;;;;;;;;;;;;;;;;;5093209;28;19998;-79
2023/02/13 00:57:11;;;;;;;;;;;;;;;;;;5072972;28;19939;-79
2023/02/13 00:59:36;;;;;;;;;;;;;;;;;;5078589;28;19916;-79
2023/02/13 01:02:01;;;;;;;;;;;;;;;;;;5092031;28;19959;-79
2023/02/13 01:04:26;;;;;;;;;;;;;;;;;;5092849;28;19912;-79
2023/02/13 01:06:51;;;;;;;;;;;;;;;;;;5109286;28;20298;-79
2023/02/13 01:09:16;;;;;;;;;;;;;;;;;;5084181;28;20014;-79
2023/02/13 01:11:41;;;;;;;;;;;;;;;;;;5086832;28;20313;-79
2023/02/13 01:14:07;;;;;;;;;;;;;;;;;;5072991;28;19916;-79
2023/02/13 01:16:32;;;;;;;;;;;;;;;;;;5098471;28;19912;-79
2023/02/13 01:18:57;;;;;;;;;;;;;;;;;;5095969;28;19966;-79
2023/02/13 01:21:23;;;;;;;;;;;;;;;;;;5099088;28;19961;-79
2023/02/13 01:23:48;;;;;;;;;;;;;;;;;;5087484;28;19923;-79
2023/02/13 01:26:13;;;;;;;;;;;;;;;;;;5101005;28;19912;-79
2023/02/13 01:28:38;;;;;;;;;;;;;;;;;;5106184;28;19916;-79
2023/02/13 01:31:03;;;;;;;;;;;;;;;;;;5087573;28;20354;-79
2023/02/13 01:33:29;;;;;;;;;;;;;;;;;;5099410;28;19912;-79
2023/02/13 01:35:54;;;;;;;;;;;;;;;;;;5084049;28;20183;-79
2023/02/13 01:38:19;;;;;;;;;;;;;;;;;;5101077;28;19918;-79
2023/02/13 01:40:44;;;;;;;;;;;;;;;;;;5093303;28;20010;-78
2023/02/13 01:43:09;;;;;;;;;;;;;;;;;;5097592;28;19963;-79
2023/02/13 01:45:34;;;;;;;;;;;;;;;;;;5087260;28;19915;-78
2023/02/13 01:48:00;;;;;;;;;;;;;;;;;;5096847;28;19920;-78
2023/02/13 01:50:25;;;;;;;;;;;;;;;;;;5106596;28;19916;-79
2023/02/13 01:52:50;;;;;;;;;;;;;;;;;;5090592;28;19919;-79
2023/02/13 01:55:15;;;;;;;;;;;;;;;;;;5080297;28;19916;-80
2023/02/13 01:57:40;;;;;;;;;;;;;;;;;;5095122;28;19947;-77
2023/02/13 02:00:05;;;;;;;;;;;;;;;;;;5092414;28;20378;-79
2023/02/13 02:02:30;;;;;;;;;;;;;;;;;;5089291;28;20382;-79
2023/02/13 02:04:56;;;;;;;;;;;;;;;;;;5079416;28;19916;-79
2023/02/13 02:07:21;;;;;;;;;;;;;;;;;;5078670;28;19920;-79
2023/02/13 02:09:46;;;;;;;;;;;;;;;;;;5084689;28;20243;-79
2023/02/13 02:12:11;;;;;;;;;;;;;;;;;;5098245;28;19926;-79
2023/02/13 02:14:36;;;;;;;;;;;;;;;;;;5081911;28;20374;-79
2023/02/13 02:17:01;;;;;;;;;;;;;;;;;;5087764;28;19918;-79
2023/02/13 02:19:26;;;;;;;;;;;;;;;;;;5084510;28;19916;-79
2023/02/13 02:21:52;;;;;;;;;;;;;;;;;;5093047;28;19916;-79
2023/02/13 02:24:17;;;;;;;;;;;;;;;;;;5080670;28;19970;-79
2023/02/13 02:26:42;;;;;;;;;;;;;;;;;;5081251;28;19912;-79
2023/02/13 02:29:07;;;;;;;;;;;;;;;;;;5102621;28;19934;-79
2023/02/13 02:31:32;;;;;;;;;;;;;;;;;;5104960;28;20407;-79
2023/02/13 02:33:57;;;;;;;;;;;;;;;;;;5098792;28;19935;-79
2023/02/13 02:36:22;;;;;;;;;;;;;;;;;;5099202;28;19955;-79
2023/02/13 02:38:47;;;;;;;;;;;;;;;;;;5093227;28;19935;-78
2023/02/13 02:41:40;;;;;;;;;;;;;;;;;;5082151;28;19996;-78
2023/02/13 02:43:58;;;;;;;;;;;;;;;;;;5075362;28;20061;-79
2023/02/13 02:46:23;;;;;;;;;;;;;;;;;;5097219;28;19955;-79
2023/02/13 02:51:32;;;;;;;;;;;;;;;;;;5077389;28;19920;-79
2023/02/13 02:53:57;;;;;;;;;;;;;;;;;;5098919;28;19912;-80
2023/02/13 02:56:22;;;;;;;;;;;;;;;;;;5102755;28;19912;-78
2023/02/13 03:06:59;;;;;;;;;;;;;;;;;;5102203;28;21934;-79
2023/02/13 03:14:52;;;;;;;;;;;;;;;;;;5091496;28;19958;-79
2023/02/13 03:22:45;;;;;;;;;;;;;;;;;;5105014;28;19958;-79
2023/02/13 03:25:10;;;;;;;;;;;;;;;;;;5092369;28;20366;-79
2023/02/13 03:30:19;;;;;;;;;;;;;;;;;;5103119;28;19919;-78
2023/02/13 03:32:44;;;;;;;;;;;;;;;;;;5098173;28;19909;-78
2023/02/13 03:37:56;;;;;;;;;;;;;;;;;;5100167;28;20328;-78
2023/02/13 03:40:21;;;;;;;;;;;;;;;;;;5090343;28;19977;-78
2023/02/13 03:42:46;;;;;;;;;;;;;;;;;;5090426;28;19916;-78
2023/02/13 03:47:55;;;;;;;;;;;;;;;;;;5094234;28;20451;-79
2023/02/13 03:50:20;;;;;;;;;;;;;;;;;;5089026;28;19915;-79
2023/02/13 03:52:45;;;;;;;;;;;;;;;;;;5097550;28;19922;-79
2023/02/13 04:00:38;;;;;;;;;;;;;;;;;;5082593;28;20645;-79
2023/02/13 04:03:03;;;;;;;;;;;;;;;;;;5108025;28;20102;-80
2023/02/13 04:05:28;;;;;;;;;;;;;;;;;;5102790;28;19918;-79
2023/02/13 04:07:54;;;;;;;;;;;;;;;;;;5087941;28;19927;-79
2023/02/13 04:10:19;;;;;;;;;;;;;;;;;;5091264;28;19999;-78
2023/02/13 04:12:44;;;;;;;;;;;;;;;;;;5095709;28;19912;-78
2023/02/13 04:15:09;;;;;;;;;;;;;;;;;;5091999;28;20007;-78
2023/02/13 04:17:34;;;;;;;;;;;;;;;;;;5088893;28;19912;-78
2023/02/13 04:19:59;;;;;;;;;;;;;;;;;;5082039;28;20320;-78
2023/02/13 04:22:24;;;;;;;;;;;;;;;;;;5089593;28;20289;-79
2023/02/13 04:24:50;;;;;;;;;;;;;;;;;;5109304;28;19962;-79
2023/02/13 04:27:15;;;;;;;;;;;;;;;;;;5090202;28;19916;-79
2023/02/13 04:29:40;;;;;;;;;;;;;;;;;;5095012;28;20282;-79
2023/02/13 04:32:05;;;;;;;;;;;;;;;;;;5103189;28;20015;-79
2023/02/13 04:34:30;;;;;;;;;;;;;;;;;;5098228;28;19912;-79
2023/02/13 04:36:56;;;;;;;;;;;;;;;;;;5096763;28;19916;-79
2023/02/13 04:39:21;;;;;;;;;;;;;;;;;;5091274;28;19908;-79
2023/02/13 04:41:46;;;;;;;;;;;;;;;;;;5097260;28;19920;-79
2023/02/13 04:44:11;;;;;;;;;;;;;;;;;;5094225;28;19919;-79
2023/02/13 04:46:36;;;;;;;;;;;;;;;;;;5095924;28;20373;-79
2023/02/13 04:49:01;;;;;;;;;;;;;;;;;;5094121;28;19974;-79
2023/02/13 04:51:26;;;;;;;;;;;;;;;;;;5091023;28;19923;-79
2023/02/13 04:53:52;;;;;;;;;;;;;;;;;;5102137;28;19942;-78
2023/02/13 04:56:17;;;;;;;;;;;;;;;;;;5094399;28;20046;-77
2023/02/13 04:58:42;;;;;;;;;;;;;;;;;;5086080;28;19974;-78
2023/02/13 05:01:07;;;;;;;;;;;;;;;;;;5078720;28;19911;-78
2023/02/13 05:03:32;;;;;;;;;;;;;;;;;;5097445;28;19969;-77
2023/02/13 05:05:57;;;;;;;;;;;;;;;;;;5099421;28;19982;-79
2023/02/13 05:08:22;;;;;;;;;;;;;;;;;;5099152;28;20282;-78
2023/02/13 05:10:47;;;;;;;;;;;;;;;;;;5075952;28;19912;-79
2023/02/13 05:13:14;;;;;;;;;;;;;;;;;;5098487;28;19920;-79
2023/02/13 05:15:39;;;;;;;;;;;;;;;;;;5074518;28;19934;-79
2023/02/13 05:18:04;;;;;;;;;;;;;;;;;;5086213;28;20234;-78
2023/02/13 05:20:29;;;;;;;;;;;;;;;;;;5087227;28;19948;-79
2023/02/13 05:25:38;;;;;;;;;;;;;;;;;;5102272;28;19971;-79
2023/02/13 05:28:03;;;;;;;;;;;;;;;;;;5086999;28;20031;-79
2023/02/13 05:30:28;;;;;;;;;;;;;;;;;;5085042;28;20001;-79
2023/02/13 05:32:53;;;;;;;;;;;;;;;;;;5107147;28;19998;-78
2023/02/13 05:35:19;;;;;;;;;;;;;;;;;;5090713;28;20246;-79
2023/02/13 05:37:44;;;;;;;;;;;;;;;;;;5098944;28;19916;-79
2023/02/13 05:40:09;;;;;;;;;;;;;;;;;;5089114;28;19934;-79
2023/02/13 05:42:34;;;;;;;;;;;;;;;;;;5093526;28;19962;-79
2023/02/13 05:44:59;;;;;;;;;;;;;;;;;;5085615;28;20002;-79
2023/02/13 05:47:24;;;;;;;;;;;;;;;;;;5091213;28;19931;-79
2023/02/13 05:49:51;;;;;;;;;;;;;;;;;;5089070;28;20443;-78
2023/02/13 05:52:16;;;;;;;;;;;;;;;;;;5086084;28;19916;-79
2023/02/13 05:54:41;;;;;;;;;;;;;;;;;;5083665;28;19913;-79
2023/02/13 05:57:07;;;;;;;;;;;;;;;;;;5092686;28;19916;-79
2023/02/13 05:59:32;;;;;;;;;;;;;;;;;;5083476;28;20406;-79
2023/02/13 06:01:57;;;;;;;;;;;;;;;;;;5076884;28;19917;-78
2023/02/13 06:04:22;;;;;;;;;;;;;;;;;;5085219;28;19916;-78
2023/02/13 06:06:47;;;;;;;;;;;;;;;;;;5080573;28;19912;-78
2023/02/13 06:09:12;;;;;;;;;;;;;;;;;;5077078;28;19924;-79
2023/02/13 06:11:37;;;;;;;;;;;;;;;;;;5085908;28;19912;-79
2023/02/13 06:14:03;;;;;;;;;;;;;;;;;;5087506;28;19918;-78
2023/02/13 06:16:30;;;;;;;;;;;;;;;;;;5080260;28;19967;-78
2023/02/13 06:18:55;;;;;;;;;;;;;;;;;;5081450;28;20286;-79
2023/02/13 06:21:20;;;;;;;;;;;;;;;;;;5074764;28;20262;-79
2023/02/13 06:23:45;;;;;;;;;;;;;;;;;;5086347;28;20385;-79
2023/02/13 06:26:10;;;;;;;;;;;;;;;;;;5091299;28;19912;-79
2023/02/13 06:28:35;;;;;;;;;;;;;;;;;;5090438;28;19956;-78
2023/02/13 06:31:00;;;;;;;;;;;;;;;;;;5078831;28;19909;-79
2023/02/13 06:33:25;;;;;;;;;;;;;;;;;;5098233;28;19908;-77
2023/02/13 06:35:51;;;;;;;;;;;;;;;;;;5102313;28;19960;-77
2023/02/13 06:38:20;;;;;;;;;;;;;;;;;;5098076;28;19915;-78
2023/02/13 06:40:45;;;;;;;;;;;;;;;;;;5094474;28;19912;-78
2023/02/13 06:43:10;;;;;;;;;;;;;;;;;;5091091;28;19935;-79
2023/02/13 06:45:35;;;;;;;;;;;;;;;;;;5081562;28;19916;-78
2023/02/13 06:48:01;;;;;;;;;;;;;;;;;;5086456;28;19933;-79
2023/02/13 06:50:26;;;;;;;;;;;;;;;;;;5083905;28;19916;-79
2023/02/13 06:52:51;;;;;;;;;;;;;;;;;;5082580;28;19920;-80
2023/02/13 06:55:16;;;;;;;;;;;;;;;;;;5082726;28;19970;-79
2023/02/13 06:57:41;;;;;;;;;;;;;;;;;;5080702;28;19920;-78
2023/02/13 07:00:06;;;;;;;;;;;;;;;;;;5081636;28;19923;-78
2023/02/13 07:02:31;;;;;;;;;;;;;;;;;;5081452;28;19912;-79
2023/02/13 07:04:56;;;;;;;;;;;;;;;;;;5080609;28;19957;-78
2023/02/13 07:07:22;;;;;;;;;;;;;;;;;;5075186;28;20280;-77
2023/02/13 07:09:47;;;;;;;;;;;;;;;;;;5089936;28;19916;-78
2023/02/13 07:12:12;;;;;;;;;;;;;;;;;;5080670;28;20010;-78
2023/02/13 07:14:37;;;;;;;;;;;;;;;;;;5087696;28;19912;-82
2023/02/13 07:17:02;;;;;;;;;;;;;;;;;;5088131;28;19935;-79
2023/02/13 07:19:27;;;;;;;;;;;;;;;;;;5091534;28;19916;-79
2023/02/13 07:21:52;;;;;;;;;;;;;;;;;;5092277;28;19990;-79
2023/02/13 07:24:17;;;;;;;;;;;;;;;;;;5087151;28;19912;-79
2023/02/13 07:26:43;;;;;;;;;;;;;;;;;;5082428;28;19916;-79
2023/02/13 07:29:08;;;;;;;;;;;;;;;;;;5094566;28;20305;-78
2023/02/13 07:31:33;;;;;;;;;;;;;;;;;;5102790;28;19916;-78
2023/02/13 07:33:59;;;;;;;;;;;;;;;;;;5080882;28;19912;-79
2023/02/13 07:36:24;;;;;;;;;;;;;;;;;;5081942;28;19916;-79
2023/02/13 07:38:49;;;;;;;;;;;;;;;;;;5078240;28;19912;-79
2023/02/13 07:41:14;;;;;;;;;;;;;;;;;;5096629;28;20344;-79
2023/02/13 07:43:39;;;;;;;;;;;;;;;;;;5080604;28;19912;-79
2023/02/13 07:46:04;;;;;;;;;;;;;;;;;;5103258;28;19919;-79
2023/02/13 07:48:30;;;;;;;;;;;;;;;;;;5093462;28;19917;-79
2023/02/13 07:50:55;;;;;;;;;;;;;;;;;;5095166;28;19912;-79
2023/02/13 07:53:21;;;;;;;;;;;;;;;;;;5102525;28;19913;-79
2023/02/13 07:55:46;;;;;;;;;;;;;;;;;;5105897;28;20002;-79
2023/02/13 07:58:11;;;;;;;;;;;;;;;;;;5099799;28;19915;-79
2023/02/13 08:00:37;;;;;;;;;;;;;;;;;;5100172;28;19912;-79
2023/02/13 08:03:02;;;;;;;;;;;;;;;;;;5104762;28;19965;-79
2023/02/13 08:05:27;;;;;;;;;;;;;;;;;;5104677;28;19912;-79
2023/02/13 08:07:52;;;;;;;;;;;;;;;;;;5096584;28;19974;-79
2023/02/13 08:13:01;;;;;;;;;;;;;;;;;;5099263;28;20312;-78
2023/02/13 08:15:26;;;;;;;;;;;;;;;;;;5091898;28;19912;-78
2023/02/13 08:17:51;;;;;;;;;;;;;;;;;;5100417;28;19989;-78
2023/02/13 08:20:17;;;;;;;;;;;;;;;;;;5096052;28;20052;-79
2023/02/13 08:22:42;;;;;;;;;;;;;;;;;;5081661;28;19912;-78
2023/02/13 08:25:07;;;;;;;;;;;;;;;;;;5085067;28;20286;-78
2023/02/13 08:27:32;;;;;;;;;;;;;;;;;;5078333;28;20459;-79
2023/02/13 08:29:57;;;;;;;;;;;;;;;;;;5082848;28;20010;-80
2023/02/13 08:32:22;;;;;;;;;;;;;;;;;;5081260;28;19943;-80
2023/02/13 08:34:47;;;;;;;;;;;;;;;;;;5091258;28;20356;-78
2023/02/13 08:37:13;;;;;;;;;;;;;;;;;;5087027;28;19912;-79
2023/02/13 08:39:38;;;;;;;;;;;;;;;;;;5085441;28;19919;-80
2023/02/13 08:42:03;;;;;;;;;;;;;;;;;;5083184;28;19953;-78
2023/02/13 08:44:28;;;;;;;;;;;;;;;;;;5072646;28;19913;-81
2023/02/13 08:46:53;;;;;;;;;;;;;;;;;;5081633;28;19924;-79
2023/02/13 08:49:18;;;;;;;;;;;;;;;;;;5099376;28;19916;-79
2023/02/13 08:51:43;;;;;;;;;;;;;;;;;;5085309;28;19916;-78
2023/02/13 08:54:09;;;;;;;;;;;;;;;;;;5085730;28;19912;-79
2023/02/13 08:56:34;;;;;;;;;;;;;;;;;;5095555;28;20278;-80
2023/02/13 08:58:59;;;;;;;;;;;;;;;;;;5086138;28;19977;-79
2023/02/13 09:01:24;;;;;;;;;;;;;;;;;;5091036;28;20324;-81
2023/02/13 09:03:49;;;;;;;;;;;;;;;;;;5093526;28;19918;-80
2023/02/13 09:06:14;;;;;;;;;;;;;;;;;;5083222;28;20329;-80
2023/02/13 09:08:40;;;;;;;;;;;;;;;;;;5094537;28;19916;-80
2023/02/13 09:11:06;;;;;;;;;;;;;;;;;;5098153;28;19912;-80
2023/02/13 09:13:35;;;;;;;;;;;;;;;;;;5086131;28;20000;-79
2023/02/13 09:16:01;;;;;;;;;;;;;;;;;;5100480;28;19918;-80
2023/02/13 09:18:26;;;;;;;;;;;;;;;;;;5084014;28;19999;-80
2023/02/13 09:20:51;;;;;;;;;;;;;;;;;;5098256;28;19916;-81
2023/02/13 09:23:16;;;;;;;;;;;;;;;;;;5085738;28;19912;-80
2023/02/13 09:25:41;;;;;;;;;;;;;;;;;;5084671;28;19936;-80
2023/02/13 09:28:06;;;;;;;;;;;;;;;;;;5089979;28;20019;-81
2023/02/13 09:30:31;;;;;;;;;;;;;;;;;;5080750;28;19912;-80
2023/02/13 09:32:57;;;;;;;;;;;;;;;;;;5092130;28;19916;-80
2023/02/13 09:35:22;;;;;;;;;;;;;;;;;;5087852;28;19935;-81
2023/02/13 09:37:47;;;;;;;;;;;;;;;;;;5084994;28;19971;-81
2023/02/13 09:40:12;;;;;;;;;;;;;;;;;;5084720;28;20085;-80
2023/02/13 09:42:37;;;;;;;;;;;;;;;;;;5094442;28;19912;-80
2023/02/13 09:45:02;;;;;;;;;;;;;;;;;;5093165;28;19961;-80
2023/02/13 09:47:28;;;;;;;;;;;;;;;;;;5100435;28;19919;-80
2023/02/13 09:49:53;;;;;;;;;;;;;;;;;;5094219;28;19912;-83
2023/02/13 09:52:18;;;;;;;;;;;;;;;;;;5093574;28;19967;-81
2023/02/13 09:54:43;;;;;;;;;;;;;;;;;;5097260;28;19912;-81
2023/02/13 09:57:08;;;;;;;;;;;;;;;;;;5107089;28;19957;-81
2023/02/13 09:59:33;;;;;;;;;;;;;;;;;;5097794;28;19938;-81
2023/02/13 10:01:59;;;;;;;;;;;;;;;;;;5101520;28;19962;-80
2023/02/13 10:04:24;;;;;;;;;;;;;;;;;;5085062;28;19920;-81
2023/02/13 10:06:49;;;;;;;;;;;;;;;;;;5093361;28;20354;-81
2023/02/13 10:09:14;;;;;;;;;;;;;;;;;;5098157;28;19915;-81
2023/02/13 10:11:39;;;;;;;;;;;;;;;;;;5077743;28;19912;-81
2023/02/13 10:14:04;;;;;;;;;;;;;;;;;;5087643;28;19937;-80
2023/02/13 10:16:29;;;;;;;;;;;;;;;;;;5090131;28;19927;-80
2023/02/13 10:18:54;;;;;;;;;;;;;;;;;;5079054;28;19962;-80
2023/02/13 10:21:20;;;;;;;;;;;;;;;;;;5095211;28;19912;-79
2023/02/13 10:23:45;;;;;;;;;;;;;;;;;;5110685;28;20378;-80
2023/02/13 10:26:10;;;;;;;;;;;;;;;;;;5098613;28;19913;-81
2023/02/13 10:28:35;;;;;;;;;;;;;;;;;;5109226;28;19912;-80
2023/02/13 10:31:00;;;;;;;;;;;;;;;;;;5095797;28;19916;-81
2023/02/13 10:33:25;;;;;;;;;;;;;;;;;;5092520;28;19940;-82
2023/02/13 10:35:50;;;;;;;;;;;;;;;;;;5094065;28;19912;-81
2023/02/13 10:38:16;;;;;;;;;;;;;;;;;;5101045;28;19916;-81
2023/02/13 10:40:41;;;;;;;;;;;;;;;;;;5085536;28;19919;-80
2023/02/13 10:43:06;;;;;;;;;;;;;;;;;;5089001;28;20381;-81
2023/02/13 10:45:31;;;;;;;;;;;;;;;;;;5098878;28;19916;-81
2023/02/13 10:47:56;;;;;;;;;;;;;;;;;;5110438;28;19943;-80
2023/02/13 10:50:21;;;;;;;;;;;;;;;;;;5093808;28;19965;-80
2023/02/13 10:52:46;;;;;;;;;;;;;;;;;;5084879;28;19952;-79
2023/02/13 10:55:11;;;;;;;;;;;;;;;;;;5104679;28;19919;-80
2023/02/13 10:57:37;;;;;;;;;;;;;;;;;;5093613;28;19916;-81
2023/02/13 11:00:02;;;;;;;;;;;;;;;;;;5104658;28;20265;-81
2023/02/13 11:02:27;;;;;;;;;;;;;;;;;;5096255;28;20374;-81
2023/02/13 11:04:52;;;;;;;;;;;;;;;;;;5094446;28;19920;-81
2023/02/13 11:07:17;;;;;;;;;;;;;;;;;;5104103;28;19912;-80
2023/02/13 11:09:42;;;;;;;;;;;;;;;;;;5087950;28;19916;-80
2023/02/13 11:12:07;;;;;;;;;;;;;;;;;;5091378;28;19912;-80
2023/02/13 11:14:33;;;;;;;;;;;;;;;;;;5089791;28;19999;-79
2023/02/13 11:16:58;;;;;;;;;;;;;;;;;;5088110;28;19912;-80
2023/02/13 11:19:23;;;;;;;;;;;;;;;;;;5093818;28;19948;-79
2023/02/13 11:21:48;;;;;;;;;;;;;;;;;;5112092;28;19958;-79
2023/02/13 11:24:13;;;;;;;;;;;;;;;;;;5086158;28;19912;-80
2023/02/13 11:26:38;;;;;;;;;;;;;;;;;;5084159;28;19920;-80
2023/02/13 11:29:04;;;;;;;;;;;;;;;;;;5091833;28;19915;-80
2023/02/13 11:31:29;;;;;;;;;;;;;;;;;;5085857;28;19967;-81
2023/02/13 11:33:54;;;;;;;;;;;;;;;;;;5082279;28;20393;-81
2023/02/13 11:36:19;;;;;;;;;;;;;;;;;;5091682;28;19912;-80
2023/02/13 11:38:44;;;;;;;;;;;;;;;;;;5102988;28;20320;-81
2023/02/13 11:41:09;;;;;;;;;;;;;;;;;;5089960;28;20592;-81
2023/02/13 11:43:35;;;;;;;;;;;;;;;;;;5089453;28;19913;-82
2023/02/13 11:46:01;;;;;;;;;;;;;;;;;;5089713;28;19970;-82
2023/02/13 11:48:26;;;;;;;;;;;;;;;;;;5083739;28;19923;-81
2023/02/13 11:50:51;;;;;;;;;;;;;;;;;;5089441;28;20007;-80
2023/02/13 11:53:16;;;;;;;;;;;;;;;;;;5091668;28;19923;-80
2023/02/13 11:55:41;;;;;;;;;;;;;;;;;;5088082;28;19912;-82
2023/02/13 11:58:06;;;;;;;;;;;;;;;;;;5081219;28;19930;-80
2023/02/13 12:00:36;;;;;;;;;;;;;;;;;;5088948;28;20002;-81
2023/02/13 12:03:01;;;;;;;;;;;;;;;;;;5092514;28;20386;-82
2023/02/13 12:05:26;;;;;;;;;;;;;;;;;;5103011;28;20421;-82
2023/02/13 12:07:51;;;;;;;;;;;;;;;;;;5100017;28;20374;-81
2023/02/13 12:10:16;;;;;;;;;;;;;;;;;;5101836;28;20429;-81
2023/02/13 12:12:41;;;;;;;;;;;;;;;;;;5090949;28;19926;-83
2023/02/13 12:15:07;;;;;;;;;;;;;;;;;;5081051;28;19912;-81
2023/02/13 12:17:32;;;;;;;;;;;;;;;;;;5083866;28;19912;-80
2023/02/13 12:19:57;;;;;;;;;;;;;;;;;;5102031;28;19927;-80
2023/02/13 12:22:22;;;;;;;;;;;;;;;;;;5092837;28;19912;-79
2023/02/13 12:24:47;;;;;;;;;;;;;;;;;;5092724;28;19912;-77
2023/02/13 12:27:12;;;;;;;;;;;;;;;;;;5082571;28;19941;-81
2023/02/13 12:29:38;;;;;;;;;;;;;;;;;;5093985;28;19947;-79
2023/02/13 12:32:03;;;;;;;;;;;;;;;;;;5100609;28;19981;-80
2023/02/13 12:34:28;;;;;;;;;;;;;;;;;;5080921;28;19916;-80
2023/02/13 12:36:53;;;;;;;;;;;;;;;;;;5077866;28;19958;-80
2023/02/13 12:39:18;;;;;;;;;;;;;;;;;;5094585;28;19955;-79
2023/02/13 12:41:43;;;;;;;;;;;;;;;;;;5083616;28;19947;-80
2023/02/13 12:44:09;;;;;;;;;;;;;;;;;;5078104;28;20370;-79
2023/02/13 12:46:34;;;;;;;;;;;;;;;;;;5086316;28;19920;-78
2023/02/13 12:48:59;;;;;;;;;;;;;;;;;;5092237;28;19916;-79
2023/02/13 12:51:25;;;;;;;;;;;;;;;;;;5082400;28;20362;-78
2023/02/13 12:53:50;;;;;;;;;;;;;;;;;;5085805;28;19934;-79
2023/02/13 12:56:15;;;;;;;;;;;;;;;;;;5085430;28;19950;-80
2023/02/13 12:58:41;;;;;;;;;;;;;;;;;;5078810;28;19912;-82
2023/02/13 13:01:06;;;;;;;;;;;;;;;;;;5082615;28;19927;-83
2023/02/13 13:03:31;;;;;;;;;;;;;;;;;;5084805;28;19912;-79
2023/02/13 13:05:56;;;;;;;;;;;;;;;;;;5098655;28;19942;-80
2023/02/13 13:08:21;;;;;;;;;;;;;;;;;;5092843;28;19916;-80
2023/02/13 13:10:46;;;;;;;;;;;;;;;;;;5081230;28;20050;-80
2023/02/13 13:13:12;;;;;;;;;;;;;;;;;;5083925;28;19918;-80
2023/02/13 13:15:37;;;;;;;;;;;;;;;;;;5110129;28;20474;-80
2023/02/13 13:18:02;;;;;;;;;;;;;;;;;;5091062;28;19935;-80
2023/02/13 13:20:27;;;;;;;;;;;;;;;;;;5099150;28;20288;-80
2023/02/13 13:22:52;;;;;;;;;;;;;;;;;;5100475;28;19970;-80
2023/02/13 13:25:17;;;;;;;;;;;;;;;;;;5095808;28;20279;-80
2023/02/13 13:27:43;;;;;;;;;;;;;;;;;;5102526;28;19916;-81
2023/02/13 13:30:08;;;;;;;;;;;;;;;;;;5089323;28;20189;-80
2023/02/13 13:32:34;;;;;;;;;;;;;;;;;;5103663;28;20007;-80
2023/02/13 13:34:59;;;;;;;;;;;;;;;;;;5086933;28;19916;-81
2023/02/13 13:37:24;;;;;;;;;;;;;;;;;;5102146;28;20010;-80
2023/02/13 13:39:51;;;;;;;;;;;;;;;;;;5076469;28;19961;-80
2023/02/13 13:42:16;;;;;;;;;;;;;;;;;;5076811;28;19916;-81
2023/02/13 13:44:41;;;;;;;;;;;;;;;;;;5085975;28;19927;-82
2023/02/13 13:47:06;;;;;;;;;;;;;;;;;;5077605;28;19967;-80
2023/02/13 13:49:31;;;;;;;;;;;;;;;;;;5085391;28;19923;-80
2023/02/13 13:51:56;;;;;;;;;;;;;;;;;;5092958;28;19920;-80
2023/02/13 13:54:22;;;;;;;;;;;;;;;;;;5090634;28;19920;-78
2023/02/13 13:56:47;;;;;;;;;;;;;;;;;;5089283;28;19912;-78
2023/02/13 13:59:12;;;;;;;;;;;;;;;;;;5090194;28;19912;-78
2023/02/13 14:01:37;;;;;;;;;;;;;;;;;;5103679;28;20433;-77
2023/02/13 14:04:02;;;;;;;;;;;;;;;;;;5084679;28;19924;-77
2023/02/13 14:06:27;;;;;;;;;;;;;;;;;;5078413;28;19916;-75
2023/02/13 14:08:52;;;;;;;;;;;;;;;;;;5086745;28;19923;-78
2023/02/13 14:11:18;;;;;;;;;;;;;;;;;;5080190;28;19927;-78
2023/02/13 14:13:44;;;;;;;;;;;;;;;;;;5085201;28;19912;-78
2023/02/13 14:16:10;;;;;;;;;;;;;;;;;;5077805;28;19948;-78
2023/02/13 14:18:35;;;;;;;;;;;;;;;;;;5091640;28;19959;-75
2023/02/13 14:21:00;;;;;;;;;;;;;;;;;;5083980;28;19909;-76
2023/02/13 14:23:25;;;;;;;;;;;;;;;;;;5099567;28;20380;-77
2023/02/13 14:25:50;;;;;;;;;;;;;;;;;;5101727;28;19919;-77
2023/02/13 14:28:15;;;;;;;;;;;;;;;;;;5098933;28;19916;-78
2023/02/13 14:30:41;;;;;;;;;;;;;;;;;;5091280;28;19918;-78
2023/02/13 14:33:06;;;;;;;;;;;;;;;;;;5075055;28;19960;-78
2023/02/13 14:35:31;;;;;;;;;;;;;;;;;;5083986;28;19912;-78
2023/02/13 14:37:57;;;;;;;;;;;;;;;;;;5078734;28;20382;-78
2023/02/13 14:40:23;;;;;;;;;;;;;;;;;;5075854;28;19973;-77
2023/02/13 14:42:48;;;;;;;;;;;;;;;;;;5100421;28;19920;-77
2023/02/13 14:45:14;;;;;;;;;;;;;;;;;;5090895;28;19912;-77
2023/02/13 14:47:41;;;;;;;;;;;;;;;;;;5097362;28;19916;-77
2023/02/13 14:50:06;;;;;;;;;;;;;;;;;;5081445;28;20271;-77
2023/02/13 14:52:31;;;;;;;;;;;;;;;;;;5085758;28;20390;-77
2023/02/13 14:54:57;;;;;;;;;;;;;;;;;;5073960;28;19920;-77
2023/02/13 14:57:22;;;;;;;;;;;;;;;;;;5085124;28;19996;-77
2023/02/13 14:59:47;;;;;;;;;;;;;;;;;;5093805;28;19916;-78
2023/02/13 15:02:12;;;;;;;;;;;;;;;;;;5090062;28;19909;-76
2023/02/13 15:04:37;;;;;;;;;;;;;;;;;;5094379;28;19923;-79
2023/02/13 15:07:02;;;;;;;;;;;;;;;;;;5095097;28;19915;-77
2023/02/13 15:09:27;;;;;;;;;;;;;;;;;;5096471;28;19924;-78
2023/02/13 15:11:52;;;;;;;;;;;;;;;;;;5086265;28;19951;-77
2023/02/13 15:14:18;;;;;;;;;;;;;;;;;;5089142;28;19916;-77
2023/02/13 15:16:43;;;;;;;;;;;;;;;;;;5089594;28;19913;-77
2023/02/13 15:19:08;;;;;;;;;;;;;;;;;;5087212;28;19908;-77
2023/02/13 15:21:33;;;;;;;;;;;;;;;;;;5093048;28;19928;-76
2023/02/13 15:23:58;;;;;;;;;;;;;;;;;;5091929;28;19916;-77
2023/02/13 15:26:25;;;;;;;;;;;;;;;;;;5098205;28;19911;-77
2023/02/13 15:28:50;;;;;;;;;;;;;;;;;;5082446;28;20282;-78
2023/02/13 15:31:15;;;;;;;;;;;;;;;;;;5080192;28;20231;-78
2023/02/13 15:33:40;;;;;;;;;;;;;;;;;;5100098;28;20354;-78
2023/02/13 15:36:05;;;;;;;;;;;;;;;;;;5107791;28;19958;-77
2023/02/13 15:38:30;;;;;;;;;;;;;;;;;;5108013;28;19912;-77
2023/02/13 15:40:55;;;;;;;;;;;;;;;;;;5081777;28;19913;-77
2023/02/13 15:43:21;;;;;;;;;;;;;;;;;;5088758;28;19922;-77
2023/02/13 15:45:46;;;;;;;;;;;;;;;;;;5094246;28;19920;-78
2023/02/13 15:48:11;;;;;;;;;;;;;;;;;;5105663;28;20327;-78
2023/02/13 15:50:36;;;;;;;;;;;;;;;;;;5092598;28;20374;-78
2023/02/13 15:53:01;;;;;;;;;;;;;;;;;;5095563;28;19935;-78
2023/02/13 15:55:27;;;;;;;;;;;;;;;;;;5090692;28;19916;-77
2023/02/13 15:57:52;;;;;;;;;;;;;;;;;;5099056;28;20003;-78
2023/02/13 16:00:17;;;;;;;;;;;;;;;;;;5106237;28;20421;-78
2023/02/13 16:02:42;;;;;;;;;;;;;;;;;;5104184;28;19915;-77
2023/02/13 16:05:07;;;;;;;;;;;;;;;;;;5102337;28;19959;-77
2023/02/13 16:07:32;;;;;;;;;;;;;;;;;;5082823;28;19916;-78
2023/02/13 16:09:58;;;;;;;;;;;;;;;;;;5096727;28;19939;-77
2023/02/13 16:12:23;;;;;;;;;;;;;;;;;;5095443;28;19919;-78
2023/02/13 16:14:48;;;;;;;;;;;;;;;;;;5100513;28;19984;-77
2023/02/13 16:17:13;;;;;;;;;;;;;;;;;;5099220;28;20366;-77
2023/02/13 16:19:38;;;;;;;;;;;;;;;;;;5111577;28;20290;-78
2023/02/13 16:22:03;;;;;;;;;;;;;;;;;;5110308;28;20417;-77
2023/02/13 16:24:29;;;;;;;;;;;;;;;;;;5101696;28;19923;-78
2023/02/13 16:26:54;;;;;;;;;;;;;;;;;;5090491;28;19908;-78
2023/02/13 16:29:19;;;;;;;;;;;;;;;;;;5113448;28;20282;-78
2023/02/13 16:31:44;;;;;;;;;;;;;;;;;;5100606;28;19920;-77
2023/02/13 16:34:09;;;;;;;;;;;;;;;;;;5099590;28;19954;-78
2023/02/13 16:36:34;;;;;;;;;;;;;;;;;;5090747;28;19916;-77
2023/02/13 16:38:59;;;;;;;;;;;;;;;;;;5079121;28;19943;-77
2023/02/13 16:41:24;;;;;;;;;;;;;;;;;;5089229;28;20014;-77
2023/02/13 16:43:50;;;;;;;;;;;;;;;;;;5092478;28;19955;-78
2023/02/13 16:46:19;;;;;;;;;;;;;;;;;;5086500;28;19927;-78
2023/02/13 16:48:44;;;;;;;;;;;;;;;;;;5101021;28;20015;-77
2023/02/13 16:51:09;;;;;;;;;;;;;;;;;;5102414;28;19963;-78
2023/02/13 16:53:34;;;;;;;;;;;;;;;;;;5103275;28;20370;-77
2023/02/13 16:55:59;;;;;;;;;;;;;;;;;;5113480;28;20742;-78
2023/02/13 16:58:24;;;;;;;;;;;;;;;;;;5104051;28;19912;-78
2023/02/13 17:00:50;;;;;;;;;;;;;;;;;;5103295;28;19912;-78
2023/02/13 17:03:15;;;;;;;;;;;;;;;;;;5095435;28;19943;-78
2023/02/13 17:05:40;;;;;;;;;;;;;;;;;;5082859;28;19916;-80
2023/02/13 17:08:05;;;;;;;;;;;;;;;;;;5082075;28;19920;-80
2023/02/13 17:10:32;;;;;;;;;;;;;;;;;;5085574;28;20275;-80
2023/02/13 17:12:58;;;;;;;;;;;;;;;;;;5081789;28;20016;-78